Wakayama, Japan
Current Conditions -  °F | °C
As of 5:30 AM on Saturday 22 Nov 2014 (Local Time) from RJBB Reporting Station
Clear Clear  
Wind Chill: 52°   Ceiling: Unl
Heat Index: 52°   Visibility: 6mi
Dew Point: 43°   Wind: 7mph
Humidity: 71%   Direction: 30°NNE
Pressure: 30.24"   Gusts: NA
Location:  34.22°N, 135.17°E
Report Text: RJBB 212030Z 03006KT CAVOK 11/06 Q1024 NOSIG
Loading
Personal Weather Stations






























Interactive Weather Map New forecast layout! Learn more

10-Day Weather Forecast

Advertisements
Track Severe Weather on mobile